Terminal Aerodrome Forecast
Issued by NWS Tampa Bay Area, FL

Home | Current Version | Previous Version | Text Only | Print | Product List | Glossary Off
Versions: 1 2 3 4 5 6 7 8 9 10 11 12 13 14 15

857
FTUS42 KTBW 260052 AAA
TAFSRQ
TAF AMD
KSRQ 260052Z 2601/2624 30008KT P6SM VCTS FEW035CB BKN200
      TEMPO 2601/2603 4SM -TSRA BKN035CB
     FM260300 VRB04KT P6SM FEW100 SCT250
     FM261400 15006KT P6SM SCT025 SCT100
     FM261700 27008KT P6SM VCTS SCT035CB BKN150=

USA.gov is the U.S. government's official web portal to all federal, state and local government web resources and services.